Time;durP1;ratioP1;P1;durP2;ratioP2;P2;SDS_P1;SDS_P2;PMS_P1;PMS_P2;Temp;Humidity;BMP_temperature;BMP_pressure;BME280_temperature;BME280_humidity;BME280_pressure;Samples;Min_cycle;Max_cycle;Signal;HPM_P1;HPM_P2
2022/08/13 00:02:18;;;;;;;;;;;;;;;-145.18;100.00;47064.75;5012457;28;19918;-68
2022/08/13 00:05:04;;;;;;;;;;;;;;;-145.18;100.00;47072.56;5013255;28;19980;-68
2022/08/13 00:07:29;;;;;;;;;;;;;;;-145.18;100.00;47066.72;5012558;28;19918;-69
2022/08/13 00:09:56;;;;;;;;;;;;;;;-145.18;100.00;47058.91;5013228;28;19925;-68
2022/08/13 00:15:14;;;;;;;;;;;;;;;-145.18;100.00;47070.63;5013055;28;19924;-69
2022/08/13 00:17:40;;;;;;;;;;;;;;;-145.18;100.00;47070.63;5012478;28;19925;-69
2022/08/13 00:20:07;;;;;;;;;;;;;;;-145.18;100.00;47055.00;5013126;28;19922;-69
2022/08/13 00:22:33;;;;;;;;;;;;;;;-145.18;100.00;47051.09;5012148;28;19921;-69
2022/08/13 00:25:00;;;;;;;;;;;;;;;-145.18;100.00;47074.53;5012943;28;20382;-69
2022/08/13 00:27:26;;;;;;;;;;;;;;;-145.18;100.00;47058.91;5012232;28;19987;-69
2022/08/13 00:29:56;;;;;;;;;;;;;;;-145.18;100.00;47053.03;5013058;28;19924;-68
2022/08/13 00:32:23;;;;;;;;;;;;;;;-145.18;100.00;47066.72;5012101;28;19949;-69
2022/08/13 00:34:49;;;;;;;;;;;;;;;-145.18;100.00;47056.94;5012940;28;19968;-68
2022/08/13 00:37:15;;;;;;;;;;;;;;;-145.18;100.00;47060.84;5012179;28;20452;-69
2022/08/13 00:39:40;;;;;;;;;;;;;;;-145.18;100.00;47064.75;5012539;28;19918;-68
2022/08/13 00:42:05;;;;;;;;;;;;;;;-145.18;100.00;47062.81;5012317;28;19988;-69
2022/08/13 00:44:31;;;;;;;;;;;;;;;-145.18;100.00;47062.81;5012491;28;19932;-69
2022/08/13 00:48:41;;;;;;;;;;;;;;;-145.18;100.00;47076.47;5011930;28;19929;-68
2022/08/13 00:49:42;;;;;;;;;;;;;;;-145.18;100.00;47068.66;5012263;28;19918;-69
2022/08/13 00:52:10;;;;;;;;;;;;;;;-145.18;100.00;47058.91;5012106;28;20298;-68
2022/08/13 00:54:36;;;;;;;;;;;;;;;-145.18;100.00;47058.91;5012142;28;20408;-69
2022/08/13 00:57:03;;;;;;;;;;;;;;;-145.18;100.00;47084.28;5011872;28;19960;-68
2022/08/13 00:59:28;;;;;;;;;;;;;;;-145.18;100.00;47062.81;5012393;28;19917;-68
2022/08/13 01:01:54;;;;;;;;;;;;;;;-145.18;100.00;47074.53;5011800;28;19975;-68
2022/08/13 01:04:21;;;;;;;;;;;;;;;-145.18;100.00;47078.44;5011804;28;19925;-69
2022/08/13 01:06:47;;;;;;;;;;;;;;;-145.18;100.00;47078.44;5011524;28;19923;-69
2022/08/13 01:09:13;;;;;;;;;;;;;;;-145.18;100.00;47074.53;5012348;28;19955;-69
2022/08/13 01:11:40;;;;;;;;;;;;;;;-145.18;100.00;47078.44;5011318;28;20477;-68
2022/08/13 01:14:07;;;;;;;;;;;;;;;-145.18;100.00;47082.34;5012156;28;19949;-69
2022/08/13 01:16:36;;;;;;;;;;;;;;;-145.18;100.00;47086.25;5011096;28;19918;-69
2022/08/13 01:19:03;;;;;;;;;;;;;;;-145.18;100.00;47086.25;5012245;28;20281;-68
2022/08/13 01:21:32;;;;;;;;;;;;;;;-145.18;100.00;47082.34;5011034;28;20341;-69
2022/08/13 01:23:57;;;;;;;;;;;;;;;-145.18;100.00;47080.38;5011955;28;19917;-68
2022/08/13 01:26:23;;;;;;;;;;;;;;;-145.18;100.00;47074.53;5011176;28;20011;-69
2022/08/13 01:28:50;;;;;;;;;;;;;;;-145.18;100.00;47082.34;5011709;28;19929;-69
2022/08/13 01:31:16;;;;;;;;;;;;;;;-145.18;100.00;47082.34;5011453;28;19922;-69
2022/08/13 01:33:43;;;;;;;;;;;;;;;-145.18;100.00;47096.00;5011387;28;20402;-69
2022/08/13 01:36:09;;;;;;;;;;;;;;;-145.18;100.00;47076.47;5011471;28;20496;-68
2022/08/13 01:38:36;;;;;;;;;;;;;;;-145.18;100.00;47074.53;5010886;28;20413;-68
2022/08/13 01:41:08;;;;;;;;;;;;;;;-145.18;100.00;47094.06;5011450;28;20360;-69
2022/08/13 01:43:34;;;;;;;;;;;;;;;-145.18;100.00;47088.19;5011194;28;20487;-68
2022/08/13 01:46:00;;;;;;;;;;;;;;;-145.18;100.00;47090.16;5011418;28;19933;-68
2022/08/13 01:51:21;;;;;;;;;;;;;;;-145.18;100.00;47090.16;5011374;28;19928;-68
2022/08/13 01:53:47;;;;;;;;;;;;;;;-145.18;100.00;47105.78;5011296;28;19968;-68
2022/08/13 01:56:21;;;;;;;;;;;;;;;-145.18;100.00;47086.25;5011251;28;19925;-68
2022/08/13 01:58:47;;;;;;;;;;;;;;;-145.18;100.00;47094.06;5010850;28;19943;-68
2022/08/13 02:03:56;;;;;;;;;;;;;;;-145.18;100.00;47094.06;4839795;22;19925;-68
2022/08/13 02:06:31;;;;;;;;;;;;;;;-145.18;100.00;47092.09;5011519;28;19961;-69
2022/08/13 02:08:57;;;;;;;;;;;;;;;-145.18;100.00;47076.47;5010804;28;19960;-68
2022/08/13 02:11:23;;;;;;;;;;;;;;;-145.18;100.00;47094.06;5011319;28;19917;-68
2022/08/13 02:13:52;;;;;;;;;;;;;;;-145.18;100.00;47094.06;5010973;28;20004;-69
2022/08/13 02:16:17;;;;;;;;;;;;;;;-145.18;100.00;47092.09;5011148;28;19918;-69
2022/08/13 02:18:43;;;;;;;;;;;;;;;-145.18;100.00;47096.00;5014571;28;20610;-69
2022/08/13 02:21:09;;;;;;;;;;;;;;;-145.18;100.00;47096.00;5015246;28;19925;-68
2022/08/13 02:23:34;;;;;;;;;;;;;;;-145.18;100.00;47105.78;5014814;28;20443;-68
2022/08/13 02:26:00;;;;;;;;;;;;;;;-145.18;100.00;47103.81;5015134;28;19975;-69
2022/08/13 02:28:28;;;;;;;;;;;;;;;-145.18;100.00;47090.16;5014969;28;19924;-68
2022/08/13 02:30:54;;;;;;;;;;;;;;;-145.18;100.00;47115.56;5015195;28;20385;-69
2022/08/13 02:33:20;;;;;;;;;;;;;;;-145.18;100.00;47111.66;5014586;28;19918;-69
2022/08/13 02:35:46;;;;;;;;;;;;;;;-145.18;100.00;47088.19;5015189;28;19929;-69
2022/08/13 02:38:12;;;;;;;;;;;;;;;-145.18;100.00;47101.88;5014397;28;19936;-68
2022/08/13 02:43:25;;;;;;;;;;;;;;;-145.18;100.00;47090.16;5014867;28;19920;-68
2022/08/13 02:45:52;;;;;;;;;;;;;;;-145.18;100.00;47113.59;5014848;28;20374;-68
2022/08/13 02:48:17;;;;;;;;;;;;;;;-145.18;100.00;47084.28;5014389;28;20036;-68
2022/08/13 02:50:45;;;;;;;;;;;;;;;-145.18;100.00;47101.88;5014988;28;20346;-68
2022/08/13 02:53:13;;;;;;;;;;;;;;;-145.18;100.00;47115.56;5014104;28;19972;-68
2022/08/13 02:55:38;;;;;;;;;;;;;;;-145.18;100.00;47097.97;5014861;28;19918;-68
2022/08/13 02:58:04;;;;;;;;;;;;;;;-145.18;100.00;47115.56;5013640;28;20017;-68
2022/08/13 03:00:30;;;;;;;;;;;;;;;-145.18;100.00;47119.47;5014653;28;19979;-68
2022/08/13 03:02:56;;;;;;;;;;;;;;;-145.18;100.00;47121.41;5013852;28;19932;-68
2022/08/13 03:05:21;;;;;;;;;;;;;;;-145.18;100.00;47117.50;5014840;28;19921;-68
2022/08/13 03:07:47;;;;;;;;;;;;;;;-145.18;100.00;47115.56;5013953;28;19936;-68
2022/08/13 03:10:14;;;;;;;;;;;;;;;-145.18;100.00;47117.50;5014344;28;19917;-68
2022/08/13 03:12:41;;;;;;;;;;;;;;;-145.18;100.00;47127.28;5014045;28;19925;-68
2022/08/13 03:15:11;;;;;;;;;;;;;;;-145.18;100.00;47127.28;5014288;28;19928;-68
2022/08/13 03:17:37;;;;;;;;;;;;;;;-145.18;100.00;47142.91;5014048;28;19928;-68
2022/08/13 03:20:04;;;;;;;;;;;;;;;-145.18;100.00;47140.94;5014068;28;20308;-68
2022/08/13 03:22:30;;;;;;;;;;;;;;;-145.18;100.00;47135.09;5013628;28;19964;-68
2022/08/13 03:24:55;;;;;;;;;;;;;;;-145.18;100.00;47135.09;5014267;28;20348;-68
2022/08/13 03:27:20;;;;;;;;;;;;;;;-145.18;100.00;47131.19;5013342;28;19990;-68
2022/08/13 03:29:50;;;;;;;;;;;;;;;-145.18;100.00;47142.91;5014074;28;20428;-68
2022/08/13 03:32:17;;;;;;;;;;;;;;;-145.18;100.00;47150.72;5013669;28;19921;-68
2022/08/13 03:34:43;;;;;;;;;;;;;;;-145.18;100.00;47125.31;5012727;28;19924;-68
2022/08/13 03:37:10;;;;;;;;;;;;;;;-145.18;100.00;47150.72;5013583;28;19922;-68
2022/08/13 03:39:35;;;;;;;;;;;;;;;-145.18;100.00;47135.09;5013743;28;19917;-69
2022/08/13 03:42:00;;;;;;;;;;;;;;;-145.18;100.00;47140.94;5013724;28;19944;-68
2022/08/13 03:44:25;;;;;;;;;;;;;;;-145.18;100.00;47148.75;5013597;28;19928;-68
2022/08/13 03:46:51;;;;;;;;;;;;;;;-145.18;100.00;47144.84;5013601;28;20020;-68
2022/08/13 03:49:18;;;;;;;;;;;;;;;-145.18;100.00;47146.81;5013070;28;19972;-68
2022/08/13 03:51:43;;;;;;;;;;;;;;;-145.18;100.00;47142.91;5013682;28;19925;-68
2022/08/13 03:54:08;;;;;;;;;;;;;;;-145.18;100.00;47133.13;5013115;28;19928;-68
2022/08/13 03:56:34;;;;;;;;;;;;;;;-145.18;100.00;47137.03;5013324;28;20262;-68
2022/08/13 03:58:59;;;;;;;;;;;;;;;-145.18;100.00;47133.13;5012895;28;20340;-68
2022/08/13 04:01:24;;;;;;;;;;;;;;;-145.18;100.00;47148.75;5013523;28;19921;-68
2022/08/13 04:03:49;;;;;;;;;;;;;;;-145.18;100.00;47148.75;5012720;28;19932;-68
2022/08/13 04:06:17;;;;;;;;;;;;;;;-145.18;100.00;47148.75;5012066;28;19926;-68
2022/08/13 04:08:46;;;;;;;;;;;;;;;-145.18;100.00;47152.66;5012843;28;20004;-68
2022/08/13 04:11:13;;;;;;;;;;;;;;;-145.18;100.00;47158.53;5013170;28;20450;-68
2022/08/13 04:13:39;;;;;;;;;;;;;;;-145.18;100.00;47166.34;5012803;28;19993;-68
2022/08/13 04:16:07;;;;;;;;;;;;;;;-145.18;100.00;47168.28;5013011;28;19929;-68
2022/08/13 04:18:35;;;;;;;;;;;;;;;-145.18;100.00;47183.94;5012432;28;20336;-69
2022/08/13 04:21:01;;;;;;;;;;;;;;;-145.18;100.00;47189.78;5011831;28;19929;-68
2022/08/13 04:23:27;;;;;;;;;;;;;;;-145.18;100.00;47199.56;5012788;28;19972;-68
2022/08/13 04:25:52;;;;;;;;;;;;;;;-145.18;100.00;47219.09;5013032;28;20063;-68
2022/08/13 04:28:18;;;;;;;;;;;;;;;-145.18;100.00;47209.31;5012149;28;19979;-68
2022/08/13 04:30:44;;;;;;;;;;;;;;;-145.18;100.00;47211.28;5013130;28;19921;-68
2022/08/13 04:33:14;;;;;;;;;;;;;;;-145.18;100.00;47117.50;5012436;28;19933;-70
2022/08/13 04:35:40;;;;;;;;;;;;;;;-145.18;100.00;47082.34;5013062;28;19925;-70
2022/08/13 04:38:06;;;;;;;;;;;;;;;-145.18;100.00;46926.06;5010500;28;19917;-70
2022/08/13 04:40:38;;;;;;;;;;;;;;;-145.18;100.00;46740.47;5012178;28;19928;-70
2022/08/13 04:43:04;;;;;;;;;;;;;;;-145.18;100.00;46636.94;5012388;28;19988;-70
2022/08/13 04:45:30;;;;;;;;;;;;;;;-145.18;100.00;46590.06;5012669;28;20023;-68
2022/08/13 04:47:59;;;;;;;;;;;;;;;-145.18;100.00;46580.31;5012178;28;19933;-70
2022/08/13 04:50:25;;;;;;;;;;;;;;;-145.18;100.00;46556.88;5012376;28;19918;-68
2022/08/13 04:52:51;;;;;;;;;;;;;;;-145.18;100.00;46552.97;5011962;28;19928;-70
2022/08/13 04:55:17;;;;;;;;;;;;;;;-145.18;100.00;46533.44;5012332;28;19921;-70
2022/08/13 04:57:42;;;;;;;;;;;;;;;-145.18;100.00;46525.63;5012257;28;19917;-70
2022/08/13 05:00:08;;;;;;;;;;;;;;;-145.18;100.00;46500.22;5012361;28;19929;-70
2022/08/13 05:02:40;;;;;;;;;;;;;;;-145.18;100.00;46519.75;5011464;28;19928;-70
2022/08/13 05:05:06;;;;;;;;;;;;;;;-145.18;100.00;46498.28;5012255;28;19941;-70
2022/08/13 05:07:31;;;;;;;;;;;;;;;-145.18;100.00;46504.13;5012012;28;20382;-70
2022/08/13 05:09:56;;;;;;;;;;;;;;;-145.18;100.00;46504.13;5012209;28;19929;-70
2022/08/13 05:12:21;;;;;;;;;;;;;;;-145.18;100.00;46508.03;5012066;28;19924;-70
2022/08/13 05:14:47;;;;;;;;;;;;;;;-145.18;100.00;46502.19;5011806;28;19922;-70
2022/08/13 05:17:12;;;;;;;;;;;;;;;-145.18;100.00;46504.13;5011797;28;19949;-70
2022/08/13 05:19:37;;;;;;;;;;;;;;;-145.18;100.00;46506.09;5011706;28;20369;-70
2022/08/13 05:22:03;;;;;;;;;;;;;;;-145.18;100.00;46504.13;5012210;28;20015;-70
2022/08/13 05:24:28;;;;;;;;;;;;;;;-145.18;100.00;46508.03;5011886;28;20301;-68
2022/08/13 05:26:54;;;;;;;;;;;;;;;-145.18;100.00;46502.19;5011893;28;19929;-68
2022/08/13 05:29:19;;;;;;;;;;;;;;;-145.18;100.00;46498.28;5011382;28;19918;-67
2022/08/13 05:31:45;;;;;;;;;;;;;;;-145.18;100.00;46504.13;5012050;28;20309;-69
2022/08/13 05:34:10;;;;;;;;;;;;;;;-145.18;100.00;46494.38;5011215;28;19936;-70
2022/08/13 05:36:39;;;;;;;;;;;;;;;-145.18;100.00;46504.13;5011796;28;19929;-70
2022/08/13 05:39:05;;;;;;;;;;;;;;;-145.18;100.00;46506.09;5010981;28;19972;-70
2022/08/13 05:41:30;;;;;;;;;;;;;;;-145.18;100.00;46508.03;5011945;28;19921;-70
2022/08/13 05:43:55;;;;;;;;;;;;;;;-145.18;100.00;46523.66;5011437;28;20344;-70
2022/08/13 05:46:21;;;;;;;;;;;;;;;-145.18;100.00;46517.81;5011554;28;19925;-70
2022/08/13 05:48:56;;;;;;;;;;;;;;;-145.18;100.00;46531.47;5011057;28;19922;-70
2022/08/13 05:51:24;;;;;;;;;;;;;;;-145.18;100.00;46525.63;5010935;28;19971;-70
2022/08/13 05:53:54;;;;;;;;;;;;;;;-145.18;100.00;46535.38;5010907;28;19922;-70
2022/08/13 05:56:24;;;;;;;;;;;;;;;-145.18;100.00;46547.09;5011382;28;20004;-70
2022/08/13 05:58:50;;;;;;;;;;;;;;;-145.18;100.00;46539.28;5010976;28;19921;-70
2022/08/13 06:04:03;;;;;;;;;;;;;;;-145.18;100.00;46525.63;5011016;28;19932;-70
2022/08/13 06:06:28;;;;;;;;;;;;;;;-145.18;100.00;46537.34;5011362;28;20020;-70
2022/08/13 06:08:58;;;;;;;;;;;;;;;-145.18;100.00;46531.47;5011156;28;20005;-70
2022/08/13 06:11:23;;;;;;;;;;;;;;;-145.18;100.00;46527.56;5011284;28;19917;-70
2022/08/13 06:13:49;;;;;;;;;;;;;;;-145.18;100.00;46560.78;5011016;28;20028;-70
2022/08/13 06:16:16;;;;;;;;;;;;;;;-145.18;100.00;46539.28;5011016;28;19947;-71
2022/08/13 06:18:48;;;;;;;;;;;;;;;-145.18;100.00;46552.97;5010669;28;19926;-70
2022/08/13 06:21:14;;;;;;;;;;;;;;;-145.18;100.00;46533.44;5011315;28;19925;-71
2022/08/13 06:23:41;;;;;;;;;;;;;;;-145.18;100.00;46691.66;5010933;28;19924;-70
2022/08/13 06:26:07;;;;;;;;;;;;;;;-145.18;100.00;47047.19;5011042;28;19960;-70
2022/08/13 06:28:34;;;;;;;;;;;;;;;-145.18;100.00;47088.19;5010558;28;19956;-70
2022/08/13 06:31:00;;;;;;;;;;;;;;;-145.18;100.00;47115.56;5011443;28;19921;-70
2022/08/13 06:33:26;;;;;;;;;;;;;;;-145.18;100.00;47144.84;5010737;28;20008;-70
2022/08/13 06:35:51;;;;;;;;;;;;;;;-145.18;100.00;47160.47;5011193;28;19918;-68
2022/08/13 06:38:18;;;;;;;;;;;;;;;-145.18;100.00;47142.91;5010337;28;19917;-68
2022/08/13 06:40:44;;;;;;;;;;;;;;;-145.18;100.00;47144.84;5010933;28;20388;-68
2022/08/13 06:43:10;;;;;;;;;;;;;;;-145.18;100.00;47137.03;5010442;28;19933;-68
2022/08/13 06:45:36;;;;;;;;;;;;;;;-145.18;100.00;47082.34;5011152;28;19921;-68
2022/08/13 06:48:02;;;;;;;;;;;;;;;-145.18;100.00;47103.81;5010779;28;20445;-68
2022/08/13 06:50:27;;;;;;;;;;;;;;;-145.18;100.00;47090.16;5010647;28;19917;-68
2022/08/13 06:52:54;;;;;;;;;;;;;;;-145.18;100.00;47076.47;5010468;28;19949;-69
2022/08/13 06:55:20;;;;;;;;;;;;;;;-145.18;100.00;47082.34;5010740;28;20396;-69
2022/08/13 06:57:46;;;;;;;;;;;;;;;-145.18;100.00;47055.00;5011123;28;20032;-70
2022/08/13 07:00:12;;;;;;;;;;;;;;;-145.18;100.00;47047.19;5008912;28;19921;-69
2022/08/13 07:02:40;;;;;;;;;;;;;;;-145.18;100.00;47058.91;5010741;28;19929;-69
2022/08/13 07:05:06;;;;;;;;;;;;;;;-145.18;100.00;47031.53;5013989;28;19918;-68
2022/08/13 07:07:31;;;;;;;;;;;;;;;-145.18;100.00;47041.31;5014805;28;19922;-69
2022/08/13 07:09:58;;;;;;;;;;;;;;;-145.18;100.00;47035.44;5014278;28;20360;-69
2022/08/13 07:12:24;;;;;;;;;;;;;;;-145.18;100.00;47047.19;5014136;28;19917;-69
2022/08/13 07:14:49;;;;;;;;;;;;;;;-145.18;100.00;47012.00;5014269;28;19921;-69
2022/08/13 07:17:15;;;;;;;;;;;;;;;-145.18;100.00;47029.59;5014134;28;20404;-69
2022/08/13 07:19:40;;;;;;;;;;;;;;;-145.18;100.00;47025.69;5014150;28;19924;-69
2022/08/13 07:22:06;;;;;;;;;;;;;;;-145.18;100.00;47025.69;5014207;28;20473;-69
2022/08/13 07:24:31;;;;;;;;;;;;;;;-145.18;100.00;47023.72;5013960;28;19925;-69
2022/08/13 07:27:07;;;;;;;;;;;;;;;-145.18;100.00;47017.88;5014205;28;19940;-69
2022/08/13 07:29:35;;;;;;;;;;;;;;;-145.18;100.00;47017.88;5013787;28;20275;-69
2022/08/13 07:32:01;;;;;;;;;;;;;;;-145.18;100.00;47013.97;5014155;28;20004;-69
2022/08/13 07:34:28;;;;;;;;;;;;;;;-145.18;100.00;47000.28;5013416;28;20013;-69
2022/08/13 07:36:56;;;;;;;;;;;;;;;-145.18;100.00;46996.38;5013978;28;19948;-69
2022/08/13 07:39:22;;;;;;;;;;;;;;;-145.18;100.00;46992.47;5013247;28;19975;-69
2022/08/13 07:41:48;;;;;;;;;;;;;;;-145.18;100.00;46998.34;5013785;28;20370;-69
2022/08/13 07:44:19;;;;;;;;;;;;;;;-145.18;100.00;47000.28;5013379;28;19925;-69
2022/08/13 07:46:45;;;;;;;;;;;;;;;-145.18;100.00;46990.53;5013889;28;19953;-69
2022/08/13 07:49:12;;;;;;;;;;;;;;;-145.18;100.00;46984.66;5013246;28;20420;-69
2022/08/13 07:51:38;;;;;;;;;;;;;;;-145.18;100.00;46982.72;5013770;28;19961;-69
2022/08/13 07:54:06;;;;;;;;;;;;;;;-145.18;100.00;46992.47;5013304;28;19960;-69
2022/08/13 07:56:32;;;;;;;;;;;;;;;-145.18;100.00;46982.72;5013424;28;20016;-69
2022/08/13 07:59:00;;;;;;;;;;;;;;;-145.18;100.00;46982.72;5013164;28;19929;-69
2022/08/13 08:01:27;;;;;;;;;;;;;;;-145.18;100.00;46976.84;5013419;28;20369;-69
2022/08/13 08:03:54;;;;;;;;;;;;;;;-145.18;100.00;46967.09;5012747;28;20329;-69
2022/08/13 08:06:20;;;;;;;;;;;;;;;-145.18;100.00;46984.66;5013337;28;19957;-69
2022/08/13 08:08:46;;;;;;;;;;;;;;;-145.18;100.00;46974.91;5012915;28;19924;-68
2022/08/13 08:12:32;;;;;;;;;;;;;;;-145.18;100.00;46978.81;5013282;28;19922;-69
2022/08/13 08:14:00;;;;;;;;;;;;;;;-145.18;100.00;46963.19;5012826;28;19921;-69
2022/08/13 08:16:30;;;;;;;;;;;;;;;-145.18;100.00;46961.22;5012238;28;19924;-69
2022/08/13 08:18:56;;;;;;;;;;;;;;;-145.18;100.00;46949.50;5012705;28;19921;-69
2022/08/13 08:21:25;;;;;;;;;;;;;;;-145.18;100.00;46965.13;5012893;28;19928;-70
2022/08/13 08:23:58;;;;;;;;;;;;;;;-145.18;100.00;46949.50;5012794;28;19953;-69
2022/08/13 08:26:28;;;;;;;;;;;;;;;-145.18;100.00;46951.44;5012955;28;19925;-69
2022/08/13 08:28:55;;;;;;;;;;;;;;;-145.18;100.00;46947.53;5012513;28;20044;-70
2022/08/13 08:31:21;;;;;;;;;;;;;;;-145.18;100.00;46947.53;5012872;28;19976;-69
2022/08/13 08:33:47;;;;;;;;;;;;;;;-145.18;100.00;46945.59;5011430;28;19921;-69
2022/08/13 08:36:12;;;;;;;;;;;;;;;-145.18;100.00;46949.50;5012351;28;19926;-69
2022/08/13 08:44:16;;;;;;;;;;;;;;;-145.18;100.00;46922.16;5012365;28;19968;-69
2022/08/13 08:46:41;;;;;;;;;;;;;;;-145.18;100.00;46941.69;5012643;28;19953;-69
2022/08/13 08:49:07;;;;;;;;;;;;;;;-145.18;100.00;46929.97;5012418;28;19922;-69
2022/08/13 08:51:32;;;;;;;;;;;;;;;-145.18;100.00;46929.97;5012377;28;19964;-69
2022/08/13 08:53:58;;;;;;;;;;;;;;;-145.18;100.00;46918.25;5012153;28;20286;-69
2022/08/13 08:56:24;;;;;;;;;;;;;;;-145.18;100.00;46922.16;5012340;28;19918;-69
2022/08/13 08:58:49;;;;;;;;;;;;;;;-145.18;100.00;46914.34;5011868;28;19931;-70
2022/08/13 09:01:21;;;;;;;;;;;;;;;-145.18;100.00;46906.53;5012245;28;19968;-69
2022/08/13 09:03:46;;;;;;;;;;;;;;;-145.18;100.00;46914.34;5012050;28;19925;-70
2022/08/13 09:06:11;;;;;;;;;;;;;;;-145.18;100.00;46922.16;5011953;28;19982;-70
2022/08/13 09:08:37;;;;;;;;;;;;;;;-145.18;100.00;46906.53;5012236;28;20275;-70
2022/08/13 09:11:03;;;;;;;;;;;;;;;-145.18;100.00;46916.28;5011139;28;19929;-70
2022/08/13 09:13:29;;;;;;;;;;;;;;;-145.18;100.00;46908.47;5011570;28;19925;-70
2022/08/13 09:15:57;;;;;;;;;;;;;;;-145.18;100.00;46906.53;5012295;28;19917;-70
2022/08/13 09:18:22;;;;;;;;;;;;;;;-145.18;100.00;46898.72;5011550;28;19924;-70
2022/08/13 09:20:49;;;;;;;;;;;;;;;-145.18;100.00;46887.00;5011798;28;19949;-70
2022/08/13 09:23:15;;;;;;;;;;;;;;;-145.18;100.00;46898.72;5011788;28;19984;-70
2022/08/13 09:25:50;;;;;;;;;;;;;;;-145.18;100.00;46881.13;5011721;28;19928;-70
2022/08/13 09:28:17;;;;;;;;;;;;;;;-145.18;100.00;46887.00;5011782;28;20291;-70
2022/08/13 09:30:45;;;;;;;;;;;;;;;-145.18;100.00;46898.72;5011563;28;19947;-70
2022/08/13 09:33:12;;;;;;;;;;;;;;;-145.18;100.00;46898.72;5011598;28;20444;-70
2022/08/13 09:35:39;;;;;;;;;;;;;;;-145.18;100.00;46885.03;5011906;28;20372;-70
2022/08/13 09:38:06;;;;;;;;;;;;;;;-145.18;100.00;46892.84;5011803;28;20374;-70
2022/08/13 09:40:38;;;;;;;;;;;;;;;-145.18;100.00;46879.19;5010938;28;19944;-70
2022/08/13 09:43:17;;;;;;;;;;;;;;;-145.18;100.00;46887.00;5011909;28;19967;-70
2022/08/13 09:45:43;;;;;;;;;;;;;;;-145.18;100.00;46873.31;5011173;28;19924;-70
2022/08/13 09:48:08;;;;;;;;;;;;;;;-145.18;99.12;46885.03;5011798;28;19929;-70
2022/08/13 09:50:34;;;;;;;;;;;;;;;-145.18;99.48;46875.28;5009654;28;19964;-70
2022/08/13 09:52:59;;;;;;;;;;;;;;;-145.18;96.29;46869.41;5011566;28;19945;-70
2022/08/13 09:55:24;;;;;;;;;;;;;;;-145.18;96.34;46879.19;5010769;28;19922;-70
2022/08/13 09:57:50;;;;;;;;;;;;;;;-145.18;92.21;46861.59;5011474;28;20024;-70
2022/08/13 10:00:22;;;;;;;;;;;;;;;-145.18;88.46;46883.09;5009736;28;19928;-70
2022/08/13 10:02:54;;;;;;;;;;;;;;;-145.18;89.44;46871.38;5011209;28;19925;-70
2022/08/13 10:05:19;;;;;;;;;;;;;;;-145.18;91.71;46871.38;5010780;28;19921;-70
2022/08/13 10:07:45;;;;;;;;;;;;;;;-145.18;90.88;46861.59;5011445;28;20370;-70
2022/08/13 10:10:10;;;;;;;;;;;;;;;-145.18;88.43;46865.50;5010829;28;19921;-71
2022/08/13 10:12:36;;;;;;;;;;;;;;;-145.18;85.43;46840.09;5011338;28;19924;-71
2022/08/13 10:15:01;;;;;;;;;;;;;;;-145.18;85.56;46863.53;5010899;28;19968;-70
2022/08/13 10:17:27;;;;;;;;;;;;;;;-145.18;81.07;46855.72;5011091;28;19925;-71
2022/08/13 10:19:53;;;;;;;;;;;;;;;-145.18;80.00;46851.81;5011022;28;19929;-71
2022/08/13 10:22:18;;;;;;;;;;;;;;;-145.18;81.00;46855.72;5010879;28;19929;-70
2022/08/13 10:24:44;;;;;;;;;;;;;;;-145.18;82.61;46853.78;5010911;28;19922;-70
2022/08/13 10:27:09;;;;;;;;;;;;;;;-145.18;76.93;46847.91;5011353;28;19925;-70
2022/08/13 10:29:35;;;;;;;;;;;;;;;-145.18;77.61;46851.81;5009411;28;20064;-71
2022/08/13 10:32:00;;;;;;;;;;;;;;;-145.18;79.09;46834.25;5011318;28;20293;-71
2022/08/13 10:34:25;;;;;;;;;;;;;;;-145.18;77.89;46836.19;5010508;28;19963;-70
2022/08/13 10:36:50;;;;;;;;;;;;;;;-145.18;75.98;46838.16;5011168;28;19925;-71
2022/08/13 10:39:16;;;;;;;;;;;;;;;-145.18;76.06;46844.00;5012937;28;19922;-70
2022/08/13 10:41:44;;;;;;;;;;;;;;;-145.18;74.11;46842.06;5014959;28;19924;-71
2022/08/13 10:44:10;;;;;;;;;;;;;;;-145.18;71.67;46830.34;5014657;28;19925;-71
2022/08/13 10:46:35;;;;;;;;;;;;;;;-145.18;70.86;46838.16;5014776;28;19936;-71
2022/08/13 10:49:00;;;;;;;;;;;;;;;-145.18;68.18;46826.44;5014580;28;20433;-71
2022/08/13 10:51:29;;;;;;;;;;;;;;;-145.18;66.94;46826.44;5014444;28;19925;-71
2022/08/13 10:54:00;;;;;;;;;;;;;;;-145.18;66.41;46822.53;5014742;28;19925;-71
2022/08/13 10:56:30;;;;;;;;;;;;;;;-145.18;67.40;46824.47;5014573;28;19969;-71
2022/08/13 10:58:56;;;;;;;;;;;;;;;-145.18;69.69;46820.56;5014283;28;19928;-71
2022/08/13 11:01:24;;;;;;;;;;;;;;;-145.18;66.06;46836.19;5014423;28;19921;-71
2022/08/13 11:04:09;;;;;;;;;;;;;;;-145.18;68.15;46816.66;5013935;28;19964;-70
2022/08/13 11:06:36;;;;;;;;;;;;;;;-145.18;64.40;46812.75;5013838;28;19929;-71
2022/08/13 11:09:03;;;;;;;;;;;;;;;-145.18;67.26;46816.66;5014399;28;20352;-71
2022/08/13 11:11:28;;;;;;;;;;;;;;;-145.18;68.62;46808.84;5014421;28;20413;-71
2022/08/13 11:13:54;;;;;;;;;;;;;;;-145.18;64.86;46810.81;5014085;28;19957;-71
2022/08/13 11:19:13;;;;;;;;;;;;;;;-145.18;64.12;46804.94;5014196;28;19922;-71
2022/08/13 11:21:39;;;;;;;;;;;;;;;-145.18;59.34;46801.03;5014414;28;19949;-71
2022/08/13 11:24:04;;;;;;;;;;;;;;;-145.18;61.90;46804.94;5014077;28;20369;-71
2022/08/13 11:26:29;;;;;;;;;;;;;;;-145.18;61.06;46808.84;5014274;28;19971;-71
2022/08/13 11:28:54;;;;;;;;;;;;;;;-145.18;61.13;46808.84;5012562;28;19928;-71
2022/08/13 11:31:20;;;;;;;;;;;;;;;-145.18;56.05;46797.13;5013853;28;19921;-71
2022/08/13 11:33:45;;;;;;;;;;;;;;;-145.18;52.45;46793.22;5014093;28;20372;-71
2022/08/13 11:36:10;;;;;;;;;;;;;;;-145.18;59.54;46797.13;5014101;28;19972;-71
2022/08/13 11:38:36;;;;;;;;;;;;;;;-145.18;55.02;46797.13;5013843;28;20461;-71
2022/08/13 11:41:01;;;;;;;;;;;;;;;-145.18;55.66;46787.38;5013370;28;19929;-71
2022/08/13 11:43:28;;;;;;;;;;;;;;;-145.18;51.73;46789.31;5013674;28;19917;-71
2022/08/13 11:45:53;;;;;;;;;;;;;;;-145.18;51.43;46781.50;5013516;28;20359;-71
2022/08/13 11:48:19;;;;;;;;;;;;;;;-145.18;45.94;46783.47;5013764;28;19922;-71
2022/08/13 11:50:44;;;;;;;;;;;;;;;-145.18;46.97;46781.50;5012331;28;20473;-71
2022/08/13 11:53:10;;;;;;;;;;;;;;;-145.18;53.35;46781.50;5013782;28;19926;-71
2022/08/13 11:55:36;;;;;;;;;;;;;;;-145.18;49.49;46793.22;5013288;28;19922;-71
2022/08/13 11:58:03;;;;;;;;;;;;;;;-145.18;44.88;46785.41;5013817;28;19929;-71
2022/08/13 12:00:28;;;;;;;;;;;;;;;-145.18;47.30;46769.78;5013070;28;19975;-71
2022/08/13 12:02:53;;;;;;;;;;;;;;;-145.18;43.48;46773.69;5013257;28;20347;-71
2022/08/13 12:05:19;;;;;;;;;;;;;;;-145.18;43.68;46763.91;5012811;28;19925;-71
2022/08/13 12:07:44;;;;;;;;;;;;;;;-145.18;44.67;46765.88;5013656;28;19921;-71
2022/08/13 12:10:10;;;;;;;;;;;;;;;-145.18;43.52;46746.34;5013172;28;19964;-71
2022/08/13 12:12:35;;;;;;;;;;;;;;;-145.18;43.39;46744.38;5013090;28;19976;-71
2022/08/13 12:15:00;;;;;;;;;;;;;;;-145.18;41.85;46750.25;5012986;28;19928;-71
2022/08/13 12:17:27;;;;;;;;;;;;;;;-145.18;42.45;46736.56;5013200;28;19957;-71
2022/08/13 12:19:52;;;;;;;;;;;;;;;-145.18;41.79;46746.34;5012768;28;20353;-72
2022/08/13 12:22:17;;;;;;;;;;;;;;;-145.18;39.47;46719.00;5013084;28;19968;-71
2022/08/13 12:24:43;;;;;;;;;;;;;;;-145.18;34.83;46717.03;5012612;28;19925;-71
2022/08/13 12:27:08;;;;;;;;;;;;;;;-145.18;38.52;46758.06;5013158;28;20336;-71
2022/08/13 12:29:33;;;;;;;;;;;;;;;-145.18;38.88;46746.34;5012360;28;20451;-71
2022/08/13 12:31:58;;;;;;;;;;;;;;;-145.18;36.47;46754.16;5012890;28;19975;-71
2022/08/13 12:34:24;;;;;;;;;;;;;;;-145.18;37.77;46777.59;5012392;28;19917;-71
2022/08/13 12:36:49;;;;;;;;;;;;;;;-145.18;36.62;46761.97;5012764;28;19936;-71
2022/08/13 12:39:14;;;;;;;;;;;;;;;-145.18;41.15;46771.75;5012376;28;19926;-71
2022/08/13 12:41:39;;;;;;;;;;;;;;;-145.18;37.90;46769.78;5012637;28;20440;-71